createdAt,value
2023-05-14T00:00:03.529Z,10.87
2023-05-14T00:02:33.129Z,10.91
2023-05-14T00:05:00.065Z,10.96
2023-05-14T00:07:26.725Z,10.94
2023-05-14T00:09:53.404Z,10.99
2023-05-14T00:12:21.552Z,11.03
2023-05-14T00:14:48.232Z,11.02
2023-05-14T00:17:14.924Z,10.97
2023-05-14T00:19:41.627Z,11.03
2023-05-14T00:22:08.625Z,10.94
2023-05-14T00:24:35.452Z,10.95
2023-05-14T00:27:02.259Z,10.99
2023-05-14T00:29:30.469Z,11.00
2023-05-14T00:31:57.372Z,11.03
2023-05-14T00:34:24.594Z,10.98
2023-05-14T00:36:51.437Z,10.95
2023-05-14T00:39:18.136Z,10.93
2023-05-14T00:41:44.884Z,10.88
2023-05-14T00:44:11.769Z,10.93
2023-05-14T00:46:39.821Z,10.90
2023-05-14T00:49:06.753Z,10.88
2023-05-14T00:51:33.622Z,10.91
2023-05-14T00:54:00.627Z,10.83
2023-05-14T00:56:28.155Z,10.81
2023-05-14T00:58:54.868Z,10.82
2023-05-14T01:01:21.806Z,10.83
2023-05-14T01:03:50.212Z,10.85
2023-05-14T01:06:24.025Z,10.87
2023-05-14T01:08:59.431Z,10.84
2023-05-14T01:11:30.464Z,10.82
2023-05-14T01:14:06.093Z,10.75
2023-05-14T01:16:34.141Z,10.81
2023-05-14T01:19:05.426Z,10.80
2023-05-14T01:21:39.636Z,10.81
2023-05-14T01:24:07.504Z,10.84
2023-05-14T01:26:34.867Z,10.89
2023-05-14T01:29:08.400Z,10.80
2023-05-14T01:31:39.053Z,10.86
2023-05-14T01:34:06.629Z,10.87
2023-05-14T01:36:34.089Z,10.83
2023-05-14T01:39:03.161Z,10.77
2023-05-14T01:41:31.446Z,10.79
2023-05-14T01:43:58.211Z,10.79
2023-05-14T01:46:24.988Z,10.81
2023-05-14T01:48:51.801Z,10.80
2023-05-14T01:51:18.818Z,10.84
2023-05-14T01:53:45.495Z,10.83
2023-05-14T01:56:13.522Z,10.80
2023-05-14T01:58:40.381Z,10.81
2023-05-14T02:01:07.103Z,10.83
2023-05-14T02:03:33.838Z,10.81
2023-05-14T02:06:00.920Z,10.86
2023-05-14T02:08:27.703Z,10.87
2023-05-14T02:10:54.437Z,10.84
2023-05-14T02:13:25.045Z,10.81
2023-05-14T02:15:51.822Z,10.83
2023-05-14T02:18:18.458Z,10.80
2023-05-14T02:20:45.120Z,10.87
2023-05-14T02:23:11.803Z,10.89
2023-05-14T02:25:38.487Z,10.86
2023-05-14T02:28:05.549Z,10.86
2023-05-14T02:30:33.867Z,10.88
2023-05-14T02:33:00.699Z,10.83
2023-05-14T02:35:27.398Z,10.87
2023-05-14T02:37:54.129Z,10.83
2023-05-14T02:40:21.705Z,10.81
2023-05-14T02:42:48.493Z,10.85
2023-05-14T02:45:15.310Z,10.80
2023-05-14T02:47:43.448Z,10.83
2023-05-14T02:50:10.588Z,10.83
2023-05-14T02:52:37.292Z,10.84
2023-05-14T02:55:04.943Z,10.81
2023-05-14T02:57:31.694Z,10.84
2023-05-14T02:59:58.327Z,10.89
2023-05-14T03:02:25.620Z,10.88
2023-05-14T03:04:54.040Z,10.87
2023-05-14T03:07:20.696Z,10.84
2023-05-14T03:09:47.329Z,10.88
2023-05-14T03:12:14.164Z,10.85
2023-05-14T03:14:40.786Z,10.78
2023-05-14T03:17:07.599Z,10.77
2023-05-14T03:19:34.393Z,10.82
2023-05-14T03:22:02.898Z,10.85
2023-05-14T03:24:30.117Z,10.82
2023-05-14T03:26:56.781Z,10.82
2023-05-14T03:29:23.480Z,10.69
2023-05-14T03:31:50.278Z,10.60
2023-05-14T03:34:17.056Z,10.54
2023-05-14T03:36:43.654Z,10.61
2023-05-14T03:39:11.733Z,10.74
2023-05-14T03:41:38.562Z,10.79
2023-05-14T03:44:05.407Z,10.81
2023-05-14T03:46:32.207Z,10.91
2023-05-14T03:48:59.839Z,10.89
2023-05-14T03:51:26.697Z,10.94
2023-05-14T03:53:53.351Z,10.95
2023-05-14T03:56:21.502Z,10.95
2023-05-14T03:58:48.163Z,11.00
2023-05-14T04:01:15.101Z,11.05
2023-05-14T04:03:42.030Z,11.05
2023-05-14T04:06:08.919Z,11.17
2023-05-14T04:08:35.616Z,11.09
2023-05-14T04:11:02.420Z,11.10
2023-05-14T04:13:30.560Z,11.18
2023-05-14T04:15:57.361Z,11.18
2023-05-14T04:18:24.243Z,11.32
2023-05-14T04:20:51.022Z,11.31
2023-05-14T04:23:17.861Z,11.32
2023-05-14T04:25:44.538Z,11.42
2023-05-14T04:28:11.208Z,11.40
2023-05-14T04:30:39.372Z,11.49
2023-05-14T04:33:06.174Z,11.57
2023-05-14T04:35:32.898Z,11.63
2023-05-14T04:37:59.635Z,11.69
2023-05-14T04:40:26.708Z,11.62
2023-05-14T04:42:53.580Z,11.67
2023-05-14T04:45:20.466Z,11.66
2023-05-14T04:47:48.842Z,11.78
2023-05-14T04:50:15.822Z,11.70
2023-05-14T04:52:42.563Z,11.71
2023-05-14T04:55:10.187Z,11.83
2023-05-14T04:57:36.908Z,11.73
2023-05-14T05:00:04.244Z,11.75
2023-05-14T05:02:31.042Z,11.89
2023-05-14T05:04:59.457Z,11.94
2023-05-14T05:07:26.182Z,12.01
2023-05-14T05:09:53.043Z,12.09
2023-05-14T05:12:19.715Z,12.14
2023-05-14T05:14:46.582Z,12.06
2023-05-14T05:17:13.255Z,12.23
2023-05-14T05:19:44.151Z,12.24
2023-05-14T05:22:12.649Z,12.21
2023-05-14T05:24:39.622Z,12.33
2023-05-14T05:27:06.333Z,12.43
2023-05-14T05:29:33.181Z,12.55
2023-05-14T05:32:00.005Z,12.67
2023-05-14T05:34:26.890Z,12.73
2023-05-14T05:36:53.514Z,12.63
2023-05-14T05:39:21.664Z,12.75
2023-05-14T05:41:48.399Z,12.82
2023-05-14T05:44:15.231Z,12.96
2023-05-14T05:46:41.952Z,12.96
2023-05-14T05:49:08.939Z,12.86
2023-05-14T05:51:35.668Z,13.12
2023-05-14T05:54:02.307Z,13.17
2023-05-14T05:56:30.522Z,13.25
2023-05-14T05:58:57.521Z,13.08
2023-05-14T06:01:24.169Z,13.31
2023-05-14T06:03:50.772Z,13.43
2023-05-14T06:06:17.423Z,13.32
2023-05-14T06:08:44.139Z,13.48
2023-05-14T06:11:10.830Z,13.46
2023-05-14T06:13:38.809Z,13.69
2023-05-14T06:16:05.898Z,13.72
2023-05-14T06:18:32.685Z,13.24
2023-05-14T06:20:59.359Z,13.40
2023-05-14T06:23:26.131Z,13.31
2023-05-14T06:25:52.800Z,13.38
2023-05-14T06:28:19.469Z,13.28
2023-05-14T06:30:49.898Z,13.24
2023-05-14T06:33:17.412Z,13.21
2023-05-14T06:35:45.588Z,13.34
2023-05-14T06:38:12.487Z,13.43
2023-05-14T06:40:39.184Z,13.31
2023-05-14T06:43:05.885Z,13.48
2023-05-14T06:45:33.270Z,13.23
2023-05-14T06:48:01.638Z,13.15
2023-05-14T06:50:28.526Z,13.29
2023-05-14T06:52:55.228Z,13.18
2023-05-14T06:55:22.250Z,13.47
2023-05-14T06:57:48.901Z,13.49
2023-05-14T07:00:16.829Z,13.28
2023-05-14T07:02:43.554Z,13.31
2023-05-14T07:05:11.645Z,13.50
2023-05-14T07:07:38.724Z,13.54
2023-05-14T07:10:06.447Z,13.51
2023-05-14T07:12:33.167Z,13.50
2023-05-14T07:14:59.879Z,13.69
2023-05-14T07:17:26.680Z,13.52
2023-05-14T07:19:53.591Z,13.62
2023-05-14T07:22:21.628Z,13.55
2023-05-14T07:24:48.277Z,13.77
2023-05-14T07:27:14.984Z,13.87
2023-05-14T07:29:41.666Z,14.18
2023-05-14T07:32:08.389Z,13.86
2023-05-14T07:34:35.113Z,14.21
2023-05-14T07:37:01.922Z,14.41
2023-05-14T07:39:30.117Z,14.27
2023-05-14T07:41:56.756Z,13.92
2023-05-14T07:44:23.394Z,14.56
2023-05-14T07:46:50.076Z,15.14
2023-05-14T07:49:16.738Z,15.83
2023-05-14T07:51:43.367Z,15.59
2023-05-14T07:54:10.046Z,15.11
2023-05-14T07:56:38.096Z,14.70
2023-05-14T07:59:04.909Z,14.37
2023-05-14T08:01:31.961Z,14.12
2023-05-14T08:03:58.689Z,14.43
2023-05-14T08:06:25.425Z,14.67
2023-05-14T08:08:52.066Z,14.80
2023-05-14T08:11:18.819Z,14.89
2023-05-14T08:13:46.948Z,14.95
2023-05-14T08:16:13.586Z,15.04
2023-05-14T08:18:40.272Z,15.30
2023-05-14T08:21:07.042Z,15.46
2023-05-14T08:23:33.816Z,16.44
2023-05-14T08:26:00.627Z,15.67
2023-05-14T08:28:27.270Z,16.40
2023-05-14T08:30:55.324Z,16.51
2023-05-14T08:33:22.497Z,15.41
2023-05-14T08:35:50.333Z,15.86
2023-05-14T08:38:17.309Z,16.39
2023-05-14T08:40:48.440Z,15.80
2023-05-14T08:43:20.150Z,16.78
2023-05-14T08:45:49.677Z,16.35
2023-05-14T08:48:21.970Z,16.97
2023-05-14T08:50:50.417Z,16.03
2023-05-14T08:53:17.169Z,16.16
2023-05-14T08:55:46.030Z,16.98
2023-05-14T08:58:12.677Z,16.98
2023-05-14T09:00:39.595Z,16.65
2023-05-14T09:03:06.815Z,16.82
2023-05-14T09:05:35.225Z,16.03
2023-05-14T09:08:02.104Z,15.54
2023-05-14T09:10:28.919Z,15.07
2023-05-14T09:12:55.967Z,15.72
2023-05-14T09:15:24.737Z,15.77
2023-05-14T09:17:51.521Z,15.79
2023-05-14T09:20:18.883Z,15.49
2023-05-14T09:22:47.027Z,15.33
2023-05-14T09:25:14.254Z,15.82
2023-05-14T09:27:40.930Z,16.01
2023-05-14T09:30:09.501Z,16.63
2023-05-14T09:32:37.509Z,17.11
2023-05-14T09:35:12.041Z,17.50
2023-05-14T09:37:41.691Z,17.58
2023-05-14T09:40:10.794Z,16.25
2023-05-14T09:42:37.596Z,17.41
2023-05-14T09:45:05.178Z,17.40
2023-05-14T09:47:32.059Z,17.74
2023-05-14T09:49:58.832Z,18.67
2023-05-14T09:52:26.141Z,17.79
2023-05-14T09:54:53.390Z,18.36
2023-05-14T09:57:21.806Z,18.73
2023-05-14T09:59:50.102Z,17.58
2023-05-14T10:02:23.370Z,17.29
2023-05-14T10:04:51.189Z,17.81
2023-05-14T10:07:22.977Z,18.12
2023-05-14T10:09:57.600Z,16.89
2023-05-14T10:12:29.549Z,17.27
2023-05-14T10:15:01.201Z,17.91
2023-05-14T10:17:31.990Z,18.07
2023-05-14T10:20:00.979Z,18.10
2023-05-14T10:22:33.654Z,18.16
2023-05-14T10:25:01.856Z,18.73
2023-05-14T10:27:30.554Z,19.16
2023-05-14T10:29:57.840Z,18.11
2023-05-14T10:32:25.852Z,18.61
2023-05-14T10:34:53.352Z,18.38
2023-05-14T10:37:22.013Z,18.10
2023-05-14T10:39:51.271Z,19.59
2023-05-14T10:42:18.789Z,19.10
2023-05-14T10:44:52.136Z,20.39
2023-05-14T10:47:19.881Z,19.98
2023-05-14T10:49:47.514Z,19.02
2023-05-14T10:52:17.022Z,18.44
2023-05-14T10:54:48.800Z,19.20
2023-05-14T10:57:17.189Z,18.46
2023-05-14T10:59:43.857Z,19.29
2023-05-14T11:02:27.588Z,19.90
2023-05-14T11:04:59.947Z,20.34
2023-05-14T11:07:32.034Z,18.88
2023-05-14T11:10:01.844Z,18.60
2023-05-14T11:12:29.054Z,19.34
2023-05-14T11:14:57.707Z,19.02
2023-05-14T11:17:25.350Z,20.00
2023-05-14T11:19:55.099Z,19.52
2023-05-14T11:22:22.088Z,18.55
2023-05-14T11:24:49.351Z,19.93
2023-05-14T11:27:17.210Z,21.15
2023-05-14T11:29:45.073Z,20.83
2023-05-14T11:32:14.290Z,20.12
2023-05-14T11:34:41.176Z,20.60
2023-05-14T11:37:09.621Z,20.13
2023-05-14T11:39:37.258Z,20.18
2023-05-14T11:42:04.856Z,21.11
2023-05-14T11:44:31.755Z,21.10
2023-05-14T11:46:59.777Z,22.26
2023-05-14T11:49:27.715Z,21.08
2023-05-14T11:51:57.543Z,21.90
2023-05-14T11:54:27.447Z,21.16
2023-05-14T11:56:55.421Z,21.07
2023-05-14T11:59:24.524Z,20.54
2023-05-14T12:01:51.286Z,19.97
2023-05-14T12:04:18.630Z,20.01
2023-05-14T12:06:45.267Z,20.92
2023-05-14T12:09:12.660Z,20.49
2023-05-14T12:11:40.718Z,19.93
2023-05-14T12:14:11.325Z,20.11
2023-05-14T12:16:40.583Z,19.09
2023-05-14T12:19:08.624Z,20.03
2023-05-14T12:21:35.393Z,19.79
2023-05-14T12:24:02.530Z,19.42
2023-05-14T12:26:33.161Z,19.66
2023-05-14T12:29:03.786Z,19.05
2023-05-14T12:31:30.725Z,20.07
2023-05-14T12:33:57.585Z,20.49
2023-05-14T12:36:24.603Z,19.38
2023-05-14T12:38:56.862Z,19.43
2023-05-14T12:41:23.603Z,19.98
2023-05-14T12:43:50.279Z,20.31
2023-05-14T12:46:18.317Z,20.03
2023-05-14T12:48:45.227Z,20.22
2023-05-14T12:51:11.952Z,20.18
2023-05-14T12:53:38.759Z,19.22
2023-05-14T12:56:05.922Z,19.55
2023-05-14T12:58:32.597Z,19.79
2023-05-14T13:00:59.230Z,19.65
2023-05-14T13:03:27.240Z,20.29
2023-05-14T13:05:54.464Z,20.12
2023-05-14T13:08:21.467Z,20.31
2023-05-14T13:10:48.130Z,19.82
2023-05-14T13:13:15.759Z,19.02
2023-05-14T13:15:42.683Z,18.86
2023-05-14T13:18:09.448Z,19.74
2023-05-14T13:20:37.658Z,20.29
2023-05-14T13:23:04.362Z,19.90
2023-05-14T13:25:31.092Z,20.18
2023-05-14T13:27:57.758Z,20.07
2023-05-14T13:30:24.511Z,20.85
2023-05-14T13:32:51.118Z,20.63
2023-05-14T13:35:18.115Z,20.17
2023-05-14T13:37:47.198Z,20.83
2023-05-14T13:40:13.916Z,19.74
2023-05-14T13:42:40.735Z,20.42
2023-05-14T13:45:08.322Z,20.16
2023-05-14T13:47:35.219Z,20.27
2023-05-14T13:50:02.098Z,20.59
2023-05-14T13:52:28.835Z,20.51
2023-05-14T13:54:56.837Z,19.37
2023-05-14T13:57:23.508Z,19.86
2023-05-14T13:59:50.319Z,20.74
2023-05-14T14:02:16.936Z,21.15
2023-05-14T14:04:43.688Z,21.19
2023-05-14T14:07:10.650Z,20.73
2023-05-14T14:09:37.434Z,21.10
2023-05-14T14:12:06.493Z,20.81
2023-05-14T14:14:33.271Z,20.41
2023-05-14T14:17:00.107Z,20.37
2023-05-14T14:19:26.795Z,20.42
2023-05-14T14:21:53.684Z,19.58
2023-05-14T14:24:20.441Z,19.57
2023-05-14T14:26:47.142Z,19.31
2023-05-14T14:29:15.178Z,18.96
2023-05-14T14:31:41.856Z,18.24
2023-05-14T14:34:08.543Z,18.50
2023-05-14T14:36:35.278Z,18.58
2023-05-14T14:39:02.058Z,18.51
2023-05-14T14:41:28.749Z,18.23
2023-05-14T14:43:55.487Z,17.99
2023-05-14T14:46:23.599Z,18.29
2023-05-14T14:48:50.277Z,18.33
2023-05-14T14:51:16.928Z,18.66
2023-05-14T14:53:43.545Z,18.57
2023-05-14T14:56:10.246Z,18.03
2023-05-14T14:58:37.026Z,17.79
2023-05-14T15:01:04.050Z,17.91
2023-05-14T15:03:32.785Z,17.78
2023-05-14T15:05:59.538Z,17.66
2023-05-14T15:08:27.718Z,17.78
2023-05-14T15:10:54.802Z,17.09
2023-05-14T15:13:21.936Z,17.83
2023-05-14T15:15:50.431Z,17.70
2023-05-14T15:18:17.195Z,17.71
2023-05-14T15:20:45.342Z,17.32
2023-05-14T15:23:12.097Z,17.40
2023-05-14T15:25:38.761Z,17.74
2023-05-14T15:28:06.561Z,17.67
2023-05-14T15:30:33.458Z,17.97
2023-05-14T15:33:00.305Z,17.76
2023-05-14T15:35:27.115Z,17.33
2023-05-14T15:37:56.351Z,17.22
2023-05-14T15:40:23.449Z,17.05
2023-05-14T15:42:50.438Z,16.85
2023-05-14T15:45:17.241Z,16.60
2023-05-14T15:47:43.907Z,16.68
2023-05-14T15:50:10.996Z,16.50
2023-05-14T15:52:37.954Z,16.47
2023-05-14T15:55:07.776Z,15.91
2023-05-14T15:57:34.638Z,15.75
2023-05-14T16:00:01.412Z,15.72
2023-05-14T16:02:31.118Z,15.68
2023-05-14T16:04:57.792Z,15.34
2023-05-14T16:07:24.513Z,15.33
2023-05-14T16:09:51.192Z,15.50
2023-05-14T16:12:19.597Z,15.32
2023-05-14T16:14:46.275Z,15.26
2023-05-14T16:17:12.985Z,15.30
2023-05-14T16:19:40.095Z,15.28
2023-05-14T16:22:07.268Z,15.14
2023-05-14T16:24:34.103Z,15.29
2023-05-14T16:27:00.874Z,14.75
2023-05-14T16:29:29.214Z,14.93
2023-05-14T16:31:55.911Z,15.03
2023-05-14T16:34:22.670Z,14.88
2023-05-14T16:36:49.933Z,14.58
2023-05-14T16:41:43.206Z,14.29
2023-05-14T16:44:09.951Z,14.27
2023-05-14T16:46:38.105Z,13.93
2023-05-14T16:49:04.898Z,13.97
2023-05-14T16:51:31.681Z,14.25
2023-05-14T16:53:58.465Z,13.96
2023-05-14T16:56:25.607Z,14.02
2023-05-14T16:58:52.582Z,13.69
2023-05-14T17:01:19.477Z,14.03
2023-05-14T17:03:47.576Z,13.94
2023-05-14T17:06:14.264Z,13.91
2023-05-14T17:08:40.922Z,13.88
2023-05-14T17:11:07.906Z,13.84
2023-05-14T17:13:34.604Z,13.84
2023-05-14T17:16:01.430Z,13.66
2023-05-14T17:18:28.136Z,13.95
2023-05-14T17:20:56.331Z,13.68
2023-05-14T17:23:23.048Z,13.85
2023-05-14T17:25:49.821Z,13.78
2023-05-14T17:28:16.597Z,13.48
2023-05-14T17:30:43.245Z,13.46
2023-05-14T17:33:09.955Z,13.53
2023-05-14T17:35:36.995Z,13.45
2023-05-14T17:38:05.096Z,13.45
2023-05-14T17:40:31.853Z,13.38
2023-05-14T17:42:58.573Z,13.17
2023-05-14T17:45:26.147Z,13.07
2023-05-14T17:47:53.448Z,13.04
2023-05-14T17:54:32.727Z,13.31
2023-05-14T17:57:00.637Z,13.04
2023-05-14T17:59:27.363Z,13.06
2023-05-14T18:01:54.215Z,13.00
2023-05-14T18:04:21.013Z,12.92
2023-05-14T18:06:47.755Z,12.85
2023-05-14T18:09:14.431Z,12.64
2023-05-14T18:11:42.505Z,12.63
2023-05-14T18:14:09.343Z,12.59
2023-05-14T18:16:37.032Z,12.49
2023-05-14T18:19:04.340Z,12.51
2023-05-14T18:21:31.117Z,12.40
2023-05-14T18:23:57.843Z,12.32
2023-05-14T18:26:24.569Z,12.31
2023-05-14T18:28:52.707Z,12.32
2023-05-14T18:31:19.484Z,12.30
2023-05-14T18:33:46.261Z,12.41
2023-05-14T18:36:12.896Z,12.33
2023-05-14T18:38:39.541Z,12.43
2023-05-14T18:41:06.257Z,12.39
2023-05-14T18:43:32.923Z,12.35
2023-05-14T18:46:01.201Z,12.24
2023-05-14T18:48:28.152Z,12.15
2023-05-14T18:50:54.898Z,12.06
2023-05-14T18:53:21.673Z,12.16
2023-05-14T18:55:48.492Z,11.92
2023-05-14T18:58:15.905Z,11.90
2023-05-14T19:00:42.996Z,11.88
2023-05-14T19:03:11.686Z,11.88
2023-05-14T19:05:38.749Z,11.73
2023-05-14T19:08:05.838Z,11.78
2023-05-14T19:10:32.917Z,11.74
2023-05-14T19:13:00.007Z,11.67
2023-05-14T19:15:27.111Z,11.71
2023-05-14T19:17:54.108Z,11.74
2023-05-14T19:20:22.322Z,11.62
2023-05-14T19:22:48.979Z,11.65
2023-05-14T19:25:15.833Z,11.54
2023-05-14T19:27:42.876Z,11.47
2023-05-14T19:30:12.311Z,11.43
2023-05-14T19:32:39.402Z,11.44
2023-05-14T19:35:07.015Z,11.36
2023-05-14T19:37:35.896Z,11.34
2023-05-14T19:40:04.353Z,11.24
2023-05-14T19:42:31.248Z,11.26
2023-05-14T19:44:58.119Z,11.21
2023-05-14T19:47:25.079Z,11.14
2023-05-14T19:49:51.989Z,11.17
2023-05-14T19:52:19.157Z,11.08
2023-05-14T19:54:47.361Z,10.99
2023-05-14T19:57:14.515Z,10.95
2023-05-14T19:59:41.405Z,10.91
2023-05-14T20:02:08.295Z,10.90
2023-05-14T20:04:35.148Z,10.94
2023-05-14T20:07:02.038Z,10.85
2023-05-14T20:09:28.851Z,10.77
2023-05-14T20:11:57.066Z,10.79
2023-05-14T20:14:23.796Z,10.76
2023-05-14T20:16:50.551Z,10.76
2023-05-14T20:19:17.462Z,10.76
2023-05-14T20:21:44.144Z,10.81
2023-05-14T20:24:10.861Z,10.76
2023-05-14T20:26:40.768Z,10.71
2023-05-14T20:29:08.847Z,10.74
2023-05-14T20:31:35.576Z,10.77
2023-05-14T20:34:02.348Z,10.70
2023-05-14T20:36:29.117Z,10.67
2023-05-14T20:38:56.726Z,10.58
2023-05-14T20:41:23.437Z,10.62
2023-05-14T20:43:50.131Z,10.56
2023-05-14T20:46:18.364Z,10.54
2023-05-14T20:48:47.232Z,10.54
2023-05-14T20:51:13.908Z,10.45
2023-05-14T20:53:40.640Z,10.45
2023-05-14T20:56:07.382Z,10.40
2023-05-14T20:58:34.964Z,10.36
2023-05-14T21:01:01.865Z,10.13
2023-05-14T21:03:30.233Z,9.94
2023-05-14T21:05:57.038Z,9.88
2023-05-14T21:08:23.900Z,9.83
2023-05-14T21:10:50.596Z,9.52
2023-05-14T21:13:17.369Z,10.00
2023-05-14T21:15:44.170Z,10.03
2023-05-14T21:18:11.406Z,10.09
2023-05-14T21:20:40.617Z,10.15
2023-05-14T21:23:07.519Z,10.12
2023-05-14T21:25:34.447Z,10.12
2023-05-14T21:28:01.209Z,10.04
2023-05-14T21:30:27.906Z,9.94
2023-05-14T21:32:54.594Z,9.83
2023-05-14T21:35:21.560Z,9.75
2023-05-14T21:37:49.614Z,9.62
2023-05-14T21:40:16.399Z,9.53
2023-05-14T21:42:43.078Z,9.41
2023-05-14T21:45:10.511Z,9.38
2023-05-14T21:47:37.730Z,9.47
2023-05-14T21:50:05.651Z,9.54
2023-05-14T21:52:32.377Z,9.41
2023-05-14T21:55:00.503Z,9.32
2023-05-14T21:57:28.635Z,9.34
2023-05-14T21:59:55.894Z,9.29
2023-05-14T22:02:22.725Z,9.31
2023-05-14T22:04:49.539Z,9.32
2023-05-14T22:07:16.220Z,9.46
2023-05-14T22:09:42.899Z,9.44
2023-05-14T22:12:11.588Z,9.55
2023-05-14T22:14:38.280Z,9.62
2023-05-14T22:17:04.978Z,9.68
2023-05-14T22:19:31.760Z,9.69
2023-05-14T22:21:58.599Z,9.65
2023-05-14T22:24:25.866Z,9.59
2023-05-14T22:26:52.539Z,9.64
2023-05-14T22:29:20.667Z,9.75
2023-05-14T22:31:47.500Z,9.80
2023-05-14T22:34:14.168Z,9.78
2023-05-14T22:36:40.860Z,9.84
2023-05-14T22:39:07.488Z,9.80
2023-05-14T22:41:35.448Z,9.76
2023-05-14T22:44:02.257Z,9.76
2023-05-14T22:46:30.301Z,9.67
2023-05-14T22:48:56.985Z,9.52
2023-05-14T22:51:23.718Z,9.46
2023-05-14T22:53:50.428Z,9.38
2023-05-14T22:56:17.094Z,9.19
2023-05-14T22:58:43.744Z,9.06
2023-05-14T23:01:10.433Z,9.14
2023-05-14T23:03:38.584Z,8.99
2023-05-14T23:06:05.980Z,8.92
2023-05-14T23:08:32.671Z,8.85
2023-05-14T23:10:59.356Z,8.77
2023-05-14T23:13:26.026Z,9.02
2023-05-14T23:15:52.735Z,8.92
2023-05-14T23:18:19.665Z,8.94
2023-05-14T23:20:47.706Z,8.81
2023-05-14T23:23:14.403Z,8.97
2023-05-14T23:25:41.204Z,9.04
2023-05-14T23:28:08.221Z,9.08
2023-05-14T23:30:34.912Z,9.11
2023-05-14T23:33:01.730Z,9.09
2023-05-14T23:35:28.488Z,9.23
2023-05-14T23:37:56.572Z,9.26
2023-05-14T23:40:23.320Z,9.17
2023-05-14T23:42:50.035Z,9.13
2023-05-14T23:45:16.911Z,9.01
2023-05-14T23:47:43.764Z,8.93
2023-05-14T23:50:10.777Z,8.95
2023-05-14T23:52:37.933Z,8.93
2023-05-14T23:55:07.029Z,8.94
2023-05-14T23:57:33.826Z,8.97
